sensor_id;sensor_type;location;lat;lon;timestamp;pressure;altitude;pressure_sealevel;temperature;humidity
54666;BME280;40566;50.006;36.180;2023-02-19T00:04:57;98294.88;;;2.02;79.48
54666;BME280;40566;50.006;36.180;2023-02-19T00:09:58;98289.00;;;1.98;79.49
54666;BME280;40566;50.006;36.180;2023-02-19T00:14:59;98305.09;;;2.02;79.41
54666;BME280;40566;50.006;36.180;2023-02-19T00:19:59;98295.75;;;1.99;79.28
54666;BME280;40566;50.006;36.180;2023-02-19T00:25:00;98296.63;;;2.00;79.50
54666;BME280;40566;50.006;36.180;2023-02-19T00:30:01;98300.03;;;1.98;79.45
54666;BME280;40566;50.006;36.180;2023-02-19T00:35:01;98294.94;;;1.98;79.43
54666;BME280;40566;50.006;36.180;2023-02-19T00:40:02;98288.19;;;1.94;79.48
54666;BME280;40566;50.006;36.180;2023-02-19T00:45:03;98290.72;;;1.96;79.47
54666;BME280;40566;50.006;36.180;2023-02-19T00:50:04;98300.94;;;1.94;79.36
54666;BME280;40566;50.006;36.180;2023-02-19T00:55:05;98301.75;;;1.96;79.36
54666;BME280;40566;50.006;36.180;2023-02-19T01:00:06;98303.47;;;1.97;79.19
54666;BME280;40566;50.006;36.180;2023-02-19T01:05:06;98295.75;;;1.99;79.30
54666;BME280;40566;50.006;36.180;2023-02-19T01:10:07;98299.19;;;2.00;79.13
54666;BME280;40566;50.006;36.180;2023-02-19T01:15:08;98300.13;;;1.92;79.48
54666;BME280;40566;50.006;36.180;2023-02-19T01:20:09;98308.63;;;1.91;79.30
54666;BME280;40566;50.006;36.180;2023-02-19T01:25:09;98309.59;;;1.86;79.57
54666;BME280;40566;50.006;36.180;2023-02-19T01:30:10;98305.25;;;1.89;79.43
54666;BME280;40566;50.006;36.180;2023-02-19T01:35:11;98308.59;;;1.94;79.44
54666;BME280;40566;50.006;36.180;2023-02-19T01:40:11;98306.97;;;1.90;79.52
54666;BME280;40566;50.006;36.180;2023-02-19T01:45:31;98308.63;;;1.91;79.21
54666;BME280;40566;50.006;36.180;2023-02-19T01:50:36;98305.31;;;1.88;79.33
54666;BME280;40566;50.006;36.180;2023-02-19T01:55:38;98301.09;;;1.84;79.50
54666;BME280;40566;50.006;36.180;2023-02-19T02:00:39;98308.72;;;1.85;79.51
54666;BME280;40566;50.006;36.180;2023-02-19T02:10:41;98317.91;;;1.95;79.34
54666;BME280;40566;50.006;36.180;2023-02-19T02:16:01;98312.78;;;1.97;79.04
54666;BME280;40566;50.006;36.180;2023-02-19T02:31:44;98338.31;;;1.95;79.21
54666;BME280;40566;50.006;36.180;2023-02-19T02:36:53;98334.88;;;2.00;79.29
54666;BME280;40566;50.006;36.180;2023-02-19T02:41:57;98345.94;;;1.98;79.13
54666;BME280;40566;50.006;36.180;2023-02-19T02:47:17;98354.41;;;1.99;79.15
54666;BME280;40566;50.006;36.180;2023-02-19T02:52:38;98364.69;;;1.96;78.95
54666;BME280;40566;50.006;36.180;2023-02-19T02:57:59;98362.97;;;1.96;79.20
54666;BME280;40566;50.006;36.180;2023-02-19T03:03:00;98368.03;;;2.00;79.01
54666;BME280;40566;50.006;36.180;2023-02-19T03:08:41;98365.53;;;1.95;78.86
54666;BME280;40566;50.006;36.180;2023-02-19T03:13:44;98375.63;;;2.01;79.10
54666;BME280;40566;50.006;36.180;2023-02-19T03:19:06;98369.69;;;2.01;78.90
54666;BME280;40566;50.006;36.180;2023-02-19T03:24:24;98375.56;;;2.06;78.90
54666;BME280;40566;50.006;36.180;2023-02-19T03:29:46;98380.69;;;2.04;78.83
54666;BME280;40566;50.006;36.180;2023-02-19T03:34:54;98389.97;;;2.08;78.60
54666;BME280;40566;50.006;36.180;2023-02-19T03:39:57;98401.84;;;2.09;78.66
54666;BME280;40566;50.006;36.180;2023-02-19T03:45:22;98398.53;;;2.06;78.61
54666;BME280;40566;50.006;36.180;2023-02-19T03:56:26;98408.72;;;2.06;78.52
54666;BME280;40566;50.006;36.180;2023-02-19T04:01:52;98407.03;;;2.05;78.59
54666;BME280;40566;50.006;36.180;2023-02-19T04:06:55;98407.03;;;2.05;78.52
54666;BME280;40566;50.006;36.180;2023-02-19T04:11:57;98407.84;;;2.07;78.60
54666;BME280;40566;50.006;36.180;2023-02-19T04:17:00;98408.75;;;2.04;78.38
54666;BME280;40566;50.006;36.180;2023-02-19T04:22:05;98423.13;;;2.10;78.51
54666;BME280;40566;50.006;36.180;2023-02-19T04:27:07;98422.25;;;2.11;78.22
54666;BME280;40566;50.006;36.180;2023-02-19T04:32:10;98426.50;;;2.12;78.17
54666;BME280;40566;50.006;36.180;2023-02-19T04:37:11;98432.44;;;2.11;78.28
54666;BME280;40566;50.006;36.180;2023-02-19T04:42:12;98438.41;;;2.11;78.18
54666;BME280;40566;50.006;36.180;2023-02-19T04:47:12;98444.34;;;2.12;78.18
54666;BME280;40566;50.006;36.180;2023-02-19T04:52:17;98450.25;;;2.15;78.02
54666;BME280;40566;50.006;36.180;2023-02-19T04:57:17;98445.09;;;2.18;77.82
54666;BME280;40566;50.006;36.180;2023-02-19T05:02:18;98441.69;;;2.20;77.97
54666;BME280;40566;50.006;36.180;2023-02-19T05:07:18;98444.19;;;2.21;77.95
54666;BME280;40566;50.006;36.180;2023-02-19T05:12:19;98453.63;;;2.17;77.89
54666;BME280;40566;50.006;36.180;2023-02-19T05:17:20;98452.91;;;2.08;78.08
54666;BME280;40566;50.006;36.180;2023-02-19T05:22:20;98455.47;;;2.06;78.12
54666;BME280;40566;50.006;36.180;2023-02-19T05:27:21;98463.91;;;2.11;77.96
54666;BME280;40566;50.006;36.180;2023-02-19T05:32:22;98470.59;;;2.17;77.83
54666;BME280;40566;50.006;36.180;2023-02-19T05:37:22;98462.13;;;2.15;77.68
54666;BME280;40566;50.006;36.180;2023-02-19T05:42:23;98461.19;;;2.21;77.63
54666;BME280;40566;50.006;36.180;2023-02-19T05:47:23;98474.78;;;2.21;77.55
54666;BME280;40566;50.006;36.180;2023-02-19T05:52:25;98479.16;;;2.14;77.76
54666;BME280;40566;50.006;36.180;2023-02-19T05:57:26;98473.34;;;2.03;77.84
54666;BME280;40566;50.006;36.180;2023-02-19T06:02:26;98476.81;;;1.99;78.16
54666;BME280;40566;50.006;36.180;2023-02-19T06:07:27;98470.03;;;2.00;77.86
54666;BME280;40566;50.006;36.180;2023-02-19T06:12:27;98469.94;;;2.04;77.75
54666;BME280;40566;50.006;36.180;2023-02-19T06:17:28;98463.06;;;2.09;77.72
54666;BME280;40566;50.006;36.180;2023-02-19T06:22:28;98468.06;;;2.17;77.66
54666;BME280;40566;50.006;36.180;2023-02-19T06:27:29;98474.66;;;2.30;77.41
54666;BME280;40566;50.006;36.180;2023-02-19T06:32:29;98477.91;;;2.42;77.13
54666;BME280;40566;50.006;36.180;2023-02-19T06:37:30;98474.38;;;2.49;77.13
54666;BME280;40566;50.006;36.180;2023-02-19T06:42:31;98481.84;;;2.63;76.78
54666;BME280;40566;50.006;36.180;2023-02-19T06:47:32;98478.28;;;2.71;76.65
54666;BME280;40566;50.006;36.180;2023-02-19T06:52:33;98484.81;;;2.86;76.41
54666;BME280;40566;50.006;36.180;2023-02-19T06:57:33;98483.88;;;2.93;76.23
54666;BME280;40566;50.006;36.180;2023-02-19T07:02:34;98483.72;;;3.03;75.99
54666;BME280;40566;50.006;36.180;2023-02-19T07:07:34;98484.41;;;3.11;75.84
54666;BME280;40566;50.006;36.180;2023-02-19T07:12:35;98484.97;;;3.27;75.53
54666;BME280;40566;50.006;36.180;2023-02-19T07:17:36;98489.81;;;3.42;75.26
54666;BME280;40566;50.006;36.180;2023-02-19T07:22:36;98479.50;;;3.45;75.12
54666;BME280;40566;50.006;36.180;2023-02-19T07:27:37;98476.78;;;3.53;74.76
54666;BME280;40566;50.006;36.180;2023-02-19T07:32:40;98480.91;;;3.62;74.63
54666;BME280;40566;50.006;36.180;2023-02-19T07:37:41;98486.59;;;3.74;74.38
54666;BME280;40566;50.006;36.180;2023-02-19T07:42:41;98487.47;;;3.73;74.19
54666;BME280;40566;50.006;36.180;2023-02-19T07:47:42;98487.25;;;3.83;74.29
54666;BME280;40566;50.006;36.180;2023-02-19T07:52:43;98495.63;;;3.91;73.99
54666;BME280;40566;50.006;36.180;2023-02-19T07:57:43;98508.19;;;4.02;73.66
54666;BME280;40566;50.006;36.180;2023-02-19T08:02:45;98507.19;;;4.09;73.28
54666;BME280;40566;50.006;36.180;2023-02-19T08:08:02;98507.78;;;4.20;73.07
54666;BME280;40566;50.006;36.180;2023-02-19T08:13:04;98503.56;;;4.19;73.21
54666;BME280;40566;50.006;36.180;2023-02-19T08:18:25;98505.19;;;4.23;72.76
54666;BME280;40566;50.006;36.180;2023-02-19T08:23:27;98500.75;;;4.30;72.77
54666;BME280;40566;50.006;36.180;2023-02-19T08:28:28;98505.69;;;4.37;72.22
54666;BME280;40566;50.006;36.180;2023-02-19T08:33:29;98518.06;;;4.56;71.66
54666;BME280;40566;50.006;36.180;2023-02-19T08:38:31;98530.47;;;5.42;69.76
54666;BME280;40566;50.006;36.180;2023-02-19T08:43:33;98518.50;;;7.63;63.11
54666;BME280;40566;50.006;36.180;2023-02-19T08:48:34;98516.47;;;9.07;58.42
54666;BME280;40566;50.006;36.180;2023-02-19T08:53:36;98514.44;;;7.81;62.11
54666;BME280;40566;50.006;36.180;2023-02-19T08:58:38;98515.06;;;6.34;66.64
54666;BME280;40566;50.006;36.180;2023-02-19T09:03:39;98524.84;;;5.91;68.34
54666;BME280;40566;50.006;36.180;2023-02-19T09:08:40;98527.16;;;6.30;67.67
54666;BME280;40566;50.006;36.180;2023-02-19T09:13:42;98513.88;;;15.06;45.15
54666;BME280;40566;50.006;36.180;2023-02-19T09:18:43;98508.47;;;17.66;40.29
54666;BME280;40566;50.006;36.180;2023-02-19T09:23:45;98516.88;;;17.36;39.79
54666;BME280;40566;50.006;36.180;2023-02-19T09:28:45;98519.19;;;16.20;41.85
54666;BME280;40566;50.006;36.180;2023-02-19T09:33:47;98515.06;;;13.18;47.14
54666;BME280;40566;50.006;36.180;2023-02-19T09:38:48;98524.06;;;11.36;49.88
54666;BME280;40566;50.006;36.180;2023-02-19T09:43:48;98517.25;;;15.21;41.60
54666;BME280;40566;50.006;36.180;2023-02-19T09:48:51;98502.63;;;14.38;41.90
54666;BME280;40566;50.006;36.180;2023-02-19T09:53:52;98505.50;;;17.48;36.24
54666;BME280;40566;50.006;36.180;2023-02-19T09:58:56;98500.38;;;18.26;34.96
54666;BME280;40566;50.006;36.180;2023-02-19T10:03:57;98508.91;;;20.38;32.36
54666;BME280;40566;50.006;36.180;2023-02-19T10:09:29;98512.16;;;21.10;32.58
54666;BME280;40566;50.006;36.180;2023-02-19T10:14:35;98503.03;;;17.92;36.69
54666;BME280;40566;50.006;36.180;2023-02-19T10:19:39;98520.06;;;16.44;39.29
54666;BME280;40566;50.006;36.180;2023-02-19T10:24:40;98510.34;;;16.71;38.09
54666;BME280;40566;50.006;36.180;2023-02-19T10:29:42;98521.78;;;16.81;38.29
54666;BME280;40566;50.006;36.180;2023-02-19T10:34:43;98524.25;;;17.53;36.09
54666;BME280;40566;50.006;36.180;2023-02-19T10:39:46;98534.84;;;17.40;36.31
54666;BME280;40566;50.006;36.180;2023-02-19T10:44:55;98528.88;;;17.38;36.11
54666;BME280;40566;50.006;36.180;2023-02-19T10:49:59;98531.56;;;14.05;40.30
54666;BME280;40566;50.006;36.180;2023-02-19T10:55:15;98540.97;;;11.26;44.92
54666;BME280;40566;50.006;36.180;2023-02-19T11:00:28;98533.06;;;13.66;39.47
54666;BME280;40566;50.006;36.180;2023-02-19T11:05:29;98536.66;;;14.21;39.01
54666;BME280;40566;50.006;36.180;2023-02-19T11:10:35;98520.94;;;17.51;33.01
54666;BME280;40566;50.006;36.180;2023-02-19T11:15:39;98527.63;;;14.95;38.17
54666;BME280;40566;50.006;36.180;2023-02-19T11:21:20;98518.78;;;17.45;35.29
54666;BME280;40566;50.006;36.180;2023-02-19T11:26:25;98510.44;;;17.29;34.11
54666;BME280;40566;50.006;36.180;2023-02-19T11:31:29;98510.13;;;12.21;42.35
54666;BME280;40566;50.006;36.180;2023-02-19T11:36:35;98500.94;;;9.87;45.83
54666;BME280;40566;50.006;36.180;2023-02-19T11:57:54;98525.91;;;7.72;47.73
54666;BME280;40566;50.006;36.180;2023-02-19T12:23:59;98559.91;;;6.79;48.92
54666;BME280;40566;50.006;36.180;2023-02-19T12:39:39;98577.31;;;6.70;49.39
54666;BME280;40566;50.006;36.180;2023-02-19T12:44:52;98584.72;;;6.51;49.59
54666;BME280;40566;50.006;36.180;2023-02-19T12:50:22;98577.72;;;6.28;50.29
54666;BME280;40566;50.006;36.180;2023-02-19T12:55:26;98581.34;;;6.49;50.00
54666;BME280;40566;50.006;36.180;2023-02-19T13:11:09;98558.16;;;5.93;51.11
54666;BME280;40566;50.006;36.180;2023-02-19T13:16:15;98561.94;;;5.80;51.52
54666;BME280;40566;50.006;36.180;2023-02-19T13:21:19;98563.75;;;5.76;51.63
54666;BME280;40566;50.006;36.180;2023-02-19T13:37:16;98584.84;;;5.22;52.40
54666;BME280;40566;50.006;36.180;2023-02-19T13:42:25;98573.19;;;5.08;52.46
54666;BME280;40566;50.006;36.180;2023-02-19T13:48:00;98571.59;;;5.04;52.57
54666;BME280;40566;50.006;36.180;2023-02-19T13:54:12;98577.81;;;4.94;52.75
54666;BME280;40566;50.006;36.180;2023-02-19T14:04:17;98577.13;;;4.86;53.20
54666;BME280;40566;50.006;36.180;2023-02-19T14:24:59;98573.75;;;4.46;54.21
54666;BME280;40566;50.006;36.180;2023-02-19T14:30:00;98573.09;;;4.38;54.68
54666;BME280;40566;50.006;36.180;2023-02-19T14:35:02;98580.06;;;4.31;54.79
54666;BME280;40566;50.006;36.180;2023-02-19T14:40:04;98574.28;;;4.23;54.95
54666;BME280;40566;50.006;36.180;2023-02-19T14:45:06;98579.72;;;4.06;55.17
54666;BME280;40566;50.006;36.180;2023-02-19T14:50:35;98591.13;;;3.91;55.61
54666;BME280;40566;50.006;36.180;2023-02-19T14:55:37;98589.66;;;3.78;55.85
54666;BME280;40566;50.006;36.180;2023-02-19T15:00:41;98574.50;;;3.69;55.70
54666;BME280;40566;50.006;36.180;2023-02-19T15:05:42;98556.94;;;3.52;56.13
54666;BME280;40566;50.006;36.180;2023-02-19T15:10:45;98578.25;;;3.49;56.38
54666;BME280;40566;50.006;36.180;2023-02-19T15:15:46;98574.88;;;3.49;56.33
54666;BME280;40566;50.006;36.180;2023-02-19T15:20:47;98579.25;;;3.44;56.63
54666;BME280;40566;50.006;36.180;2023-02-19T15:25:49;98573.38;;;3.37;56.59
54666;BME280;40566;50.006;36.180;2023-02-19T15:35:59;98584.53;;;3.31;56.89
54666;BME280;40566;50.006;36.180;2023-02-19T15:41:01;98582.97;;;3.24;57.01
54666;BME280;40566;50.006;36.180;2023-02-19T15:46:22;98596.72;;;3.17;57.25
54666;BME280;40566;50.006;36.180;2023-02-19T15:51:54;98593.44;;;3.09;57.33
54666;BME280;40566;50.006;36.180;2023-02-19T15:57:00;98593.56;;;3.01;57.71
54666;BME280;40566;50.006;36.180;2023-02-19T16:02:03;98595.38;;;2.94;57.89
54666;BME280;40566;50.006;36.180;2023-02-19T16:07:04;98606.31;;;3.04;57.73
54666;BME280;40566;50.006;36.180;2023-02-19T16:12:23;98607.16;;;3.03;57.61
54666;BME280;40566;50.006;36.180;2023-02-19T16:17:24;98609.00;;;2.93;58.08
54666;BME280;40566;50.006;36.180;2023-02-19T16:22:30;98614.19;;;2.90;58.28
54666;BME280;40566;50.006;36.180;2023-02-19T16:27:40;98607.47;;;2.82;58.31
54666;BME280;40566;50.006;36.180;2023-02-19T16:32:41;98621.03;;;2.87;58.44
54666;BME280;40566;50.006;36.180;2023-02-19T16:37:58;98621.78;;;2.92;58.45
54666;BME280;40566;50.006;36.180;2023-02-19T16:43:25;98626.03;;;2.94;58.47
54666;BME280;40566;50.006;36.180;2023-02-19T16:48:26;98624.34;;;2.93;58.66
54666;BME280;40566;50.006;36.180;2023-02-19T16:53:27;98614.91;;;2.97;58.64
54666;BME280;40566;50.006;36.180;2023-02-19T16:58:28;98619.97;;;3.00;58.92
54666;BME280;40566;50.006;36.180;2023-02-19T17:03:29;98611.41;;;3.04;58.71
54666;BME280;40566;50.006;36.180;2023-02-19T17:08:42;98609.72;;;3.02;58.94
54666;BME280;40566;50.006;36.180;2023-02-19T17:13:44;98601.34;;;2.93;59.03
54666;BME280;40566;50.006;36.180;2023-02-19T17:18:45;98610.78;;;2.88;59.37
54666;BME280;40566;50.006;36.180;2023-02-19T17:23:46;98607.44;;;2.85;59.63
54666;BME280;40566;50.006;36.180;2023-02-19T17:28:47;98609.09;;;2.87;59.29
54666;BME280;40566;50.006;36.180;2023-02-19T17:33:47;98598.91;;;2.86;59.60
54666;BME280;40566;50.006;36.180;2023-02-19T17:38:49;98598.09;;;2.84;59.80
54666;BME280;40566;50.006;36.180;2023-02-19T17:43:49;98590.41;;;2.87;59.94
54666;BME280;40566;50.006;36.180;2023-02-19T17:48:51;98604.81;;;2.89;59.86
54666;BME280;40566;50.006;36.180;2023-02-19T17:53:51;98602.19;;;2.94;59.93
54666;BME280;40566;50.006;36.180;2023-02-19T17:58:54;98597.97;;;2.93;60.14
54666;BME280;40566;50.006;36.180;2023-02-19T18:03:55;98598.81;;;2.92;60.21
54666;BME280;40566;50.006;36.180;2023-02-19T18:08:55;98594.63;;;2.86;60.43
54666;BME280;40566;50.006;36.180;2023-02-19T18:13:56;98599.72;;;2.88;60.64
54666;BME280;40566;50.006;36.180;2023-02-19T18:18:57;98592.94;;;2.87;60.70
54666;BME280;40566;50.006;36.180;2023-02-19T18:24:01;98592.13;;;2.85;60.95
54666;BME280;40566;50.006;36.180;2023-02-19T18:29:01;98582.78;;;2.84;61.13
54666;BME280;40566;50.006;36.180;2023-02-19T18:34:03;98587.94;;;2.81;61.43
54666;BME280;40566;50.006;36.180;2023-02-19T18:39:03;98585.31;;;2.85;61.26
54666;BME280;40566;50.006;36.180;2023-02-19T18:44:04;98579.50;;;2.75;61.56
54666;BME280;40566;50.006;36.180;2023-02-19T18:49:05;98577.84;;;2.73;61.76
54666;BME280;40566;50.006;36.180;2023-02-19T18:54:06;98588.81;;;2.78;61.72
54666;BME280;40566;50.006;36.180;2023-02-19T18:59:07;98577.88;;;2.70;61.91
54666;BME280;40566;50.006;36.180;2023-02-19T19:04:09;98572.97;;;2.54;62.29
54666;BME280;40566;50.006;36.180;2023-02-19T19:09:09;98575.63;;;2.48;62.45
54666;BME280;40566;50.006;36.180;2023-02-19T19:14:10;98571.53;;;2.38;62.67
54666;BME280;40566;50.006;36.180;2023-02-19T19:19:11;98573.25;;;2.34;62.64
54666;BME280;40566;50.006;36.180;2023-02-19T19:24:12;98566.50;;;2.32;62.82
54666;BME280;40566;50.006;36.180;2023-02-19T19:29:15;98577.53;;;2.32;62.80
54666;BME280;40566;50.006;36.180;2023-02-19T19:34:16;98580.16;;;2.29;62.91
54666;BME280;40566;50.006;36.180;2023-02-19T19:39:17;98583.47;;;2.34;63.03
54666;BME280;40566;50.006;36.180;2023-02-19T19:44:18;98572.50;;;2.29;63.16
54666;BME280;40566;50.006;36.180;2023-02-19T19:49:19;98581.81;;;2.30;63.13
54666;BME280;40566;50.006;36.180;2023-02-19T19:54:20;98576.72;;;2.30;63.23
54666;BME280;40566;50.006;36.180;2023-02-19T19:59:21;98578.44;;;2.30;63.29
54666;BME280;40566;50.006;36.180;2023-02-19T20:04:23;98575.06;;;2.29;63.31
54666;BME280;40566;50.006;36.180;2023-02-19T20:09:24;98579.28;;;2.30;63.39
54666;BME280;40566;50.006;36.180;2023-02-19T20:14:28;98565.69;;;2.30;63.17
54666;BME280;40566;50.006;36.180;2023-02-19T20:19:29;98577.63;;;2.26;63.45
54666;BME280;40566;50.006;36.180;2023-02-19T20:24:29;98576.72;;;2.30;63.47
54666;BME280;40566;50.006;36.180;2023-02-19T20:29:32;98573.34;;;2.28;63.64
54666;BME280;40566;50.006;36.180;2023-02-19T20:34:32;98561.53;;;2.21;63.63
54666;BME280;40566;50.006;36.180;2023-02-19T20:39:34;98576.78;;;2.27;63.74
54666;BME280;40566;50.006;36.180;2023-02-19T20:44:34;98566.78;;;2.12;64.07
54666;BME280;40566;50.006;36.180;2023-02-19T20:49:35;98571.88;;;2.12;64.25
54666;BME280;40566;50.006;36.180;2023-02-19T20:54:36;98580.34;;;2.15;63.96
54666;BME280;40566;50.006;36.180;2023-02-19T20:59:37;98575.19;;;2.17;64.20
54666;BME280;40566;50.006;36.180;2023-02-19T21:04:38;98576.00;;;2.21;64.09
54666;BME280;40566;50.006;36.180;2023-02-19T21:09:39;98578.56;;;2.19;63.99
54666;BME280;40566;50.006;36.180;2023-02-19T21:14:40;98576.88;;;2.20;64.12
54666;BME280;40566;50.006;36.180;2023-02-19T21:19:41;98576.84;;;2.21;63.99
54666;BME280;40566;50.006;36.180;2023-02-19T21:24:42;98569.25;;;2.18;64.28
54666;BME280;40566;50.006;36.180;2023-02-19T21:29:42;98585.47;;;2.11;64.41
54666;BME280;40566;50.006;36.180;2023-02-19T21:34:43;98575.41;;;2.02;64.77
54666;BME280;40566;50.006;36.180;2023-02-19T21:39:44;98582.09;;;2.07;64.60
54666;BME280;40566;50.006;36.180;2023-02-19T21:44:44;98572.78;;;2.06;64.65
54666;BME280;40566;50.006;36.180;2023-02-19T21:49:45;98578.81;;;1.99;64.92
54666;BME280;40566;50.006;36.180;2023-02-19T21:54:46;98572.03;;;2.00;64.83
54666;BME280;40566;50.006;36.180;2023-02-19T21:59:46;98579.69;;;2.00;64.85
54666;BME280;40566;50.006;36.180;2023-02-19T22:04:51;98575.34;;;2.05;64.77
54666;BME280;40566;50.006;36.180;2023-02-19T22:09:52;98583.81;;;2.10;64.71
54666;BME280;40566;50.006;36.180;2023-02-19T22:14:53;98591.47;;;2.07;64.76
54666;BME280;40566;50.006;36.180;2023-02-19T22:19:54;98585.53;;;2.06;64.81
54666;BME280;40566;50.006;36.180;2023-02-19T22:24:54;98589.00;;;2.01;65.10
54666;BME280;40566;50.006;36.180;2023-02-19T22:29:55;98589.88;;;2.00;65.09
54666;BME280;40566;50.006;36.180;2023-02-19T22:34:56;98591.59;;;1.97;65.06
54666;BME280;40566;50.006;36.180;2023-02-19T22:39:56;98589.06;;;1.96;65.04
54666;BME280;40566;50.006;36.180;2023-02-19T22:44:57;98589.09;;;1.94;65.09
54666;BME280;40566;50.006;36.180;2023-02-19T22:49:57;98590.91;;;1.82;65.37
54666;BME280;40566;50.006;36.180;2023-02-19T22:54:58;98590.19;;;1.72;65.35
54666;BME280;40566;50.006;36.180;2023-02-19T22:59:59;98597.13;;;1.57;65.88
54666;BME280;40566;50.006;36.180;2023-02-19T23:04:59;98598.03;;;1.52;65.83
54666;BME280;40566;50.006;36.180;2023-02-19T23:10:00;98601.50;;;1.46;65.97
54666;BME280;40566;50.006;36.180;2023-02-19T23:15:00;98592.16;;;1.42;65.97
54666;BME280;40566;50.006;36.180;2023-02-19T23:20:02;98591.34;;;1.42;65.91
54666;BME280;40566;50.006;36.180;2023-02-19T23:25:02;98586.25;;;1.40;65.74
54666;BME280;40566;50.006;36.180;2023-02-19T23:30:04;98588.78;;;1.42;65.91
54666;BME280;40566;50.006;36.180;2023-02-19T23:35:05;98592.09;;;1.53;65.71
54666;BME280;40566;50.006;36.180;2023-02-19T23:40:07;98588.63;;;1.58;65.43
54666;BME280;40566;50.006;36.180;2023-02-19T23:45:08;98581.06;;;1.49;65.61
54666;BME280;40566;50.006;36.180;2023-02-19T23:50:09;98581.94;;;1.48;65.61
54666;BME280;40566;50.006;36.180;2023-02-19T23:55:09;98583.59;;;1.52;65.49
